Sunday, October 21, 2018, 1:33 PM EDT
Back to Local

KMFV, Melfa / Accomack Airport

Location: Melfa, VA, United States Lat: 37.65
Local Time: 1:33 PM EDT (17:33 GMT) Lon: -75.767
Time Zone: US/Eastern Elev: 49 ft

Show me the last for .
Show Decoded

2018-10-21 13:15 METAR KMFV 211715Z AUTO 32020G28KT 10SM SCT046 13/01 A3008 RMK AO2 T01260006 =
2018-10-21 12:55 METAR KMFV 211655Z AUTO 33014G26KT 270V360 10SM OVC044 13/02 A3008 RMK AO2
                 T01270017 =
2018-10-21 12:35 METAR KMFV 211635Z AUTO 31017G27KT 10SM OVC044 12/01 A3008 RMK AO2 T01200014 =
2018-10-21 12:15 METAR KMFV 211615Z AUTO 33015G29KT 10SM BKN044 12/01 A3007 RMK AO2 T01180010 =
2018-10-21 11:55 METAR KMFV 211555Z AUTO 34016G30KT 10SM BKN042 12/02 A3007 RMK AO2 T01210019 =
2018-10-21 11:35 METAR KMFV 211535Z AUTO 34020G29KT 10SM SCT040 12/03 A3006 RMK AO2 T01190025 =
2018-10-21 11:15 METAR KMFV 211515Z AUTO 33018G32KT 310V010 10SM SCT038 12/03 A3006 RMK AO2
                 T01210025 =
2018-10-21 10:55 METAR KMFV 211455Z AUTO 34016G34KT 290V350 10SM BKN038 BKN050 11/02 A3005 RMK
                 AO2 T01130024 =
2018-10-21 10:35 METAR KMFV 211435Z AUTO 33015G25KT 300V020 10SM BKN040 OVC050 11/02 A3005 RMK
                 AO2 T01050024 =
2018-10-21 10:15 METAR KMFV 211415Z AUTO 34017G31KT 310V020 10SM SCT035 OVC041 10/02 A3004 RMK
                 AO2 T01020015 =
2018-10-21 10:00 METAR KMFV 211400Z AUTO 34020G30KT 10SM OVC035 10/03 A3003 RMK AO2 T01010029 =
2018-10-21 09:35 METAR KMFV 211335Z AUTO 33017G31KT 10SM SCT033 OVC041 10/03 A3001 RMK AO2
                 T01030034 =
2018-10-21 09:15 METAR KMFV 211315Z AUTO 34020G32KT 10SM BKN035 OVC042 11/04 A2999 RMK AO2
                 T01050039 =
2018-10-21 08:55 METAR KMFV 211255Z AUTO 33019G36KT 10SM BKN033 OVC039 10/04 A2998 RMK AO2
                 T01030037 =
2018-10-21 08:35 METAR KMFV 211235Z AUTO 33011G31KT 290V010 10SM BKN033 OVC042 10/04 A2996 RMK
                 AO2 T01030039 =
2018-10-21 08:15 METAR KMFV 211215Z AUTO 32018G30KT 10SM SCT031 OVC042 10/04 A2995 RMK AO2
                 T01030039 =
2018-10-21 07:55 METAR KMFV 211155Z AUTO 32013G30KT 300V010 10SM BKN036 OVC042 10/04 A2994 RMK
                 AO2 6//// 7//// T01010035 10136 20100 PNO =
2018-10-21 07:35 METAR KMFV 211135Z AUTO 31021G34KT 10SM BKN036 OVC044 11/04 A2993 RMK AO2
                 T01050035 =
2018-10-21 07:15 METAR KMFV 211115Z AUTO 30021G29KT 10SM SCT040 BKN046 BKN050 10/03 A2990 RMK AO2
                 T01030031 =
2018-10-21 06:55 METAR KMFV 211055Z AUTO 29022G30KT 10SM BKN046 BKN050 11/03 A2989 RMK AO2
                 T01050026 =
2018-10-21 06:35 METAR KMFV 211035Z AUTO 30017G30KT 10SM BKN048 BKN120 11/02 A2988 RMK AO2
                 T01050021 =
2018-10-21 06:15 METAR KMFV 211015Z AUTO 30021G31KT 10SM SCT050 BKN095 BKN120 11/02 A2987 RMK AO2
                 T01070023 =
2018-10-21 05:55 METAR KMFV 210955Z AUTO 30021G34KT 10SM SCT045 SCT075 OVC095 11/03 A2986 RMK AO2
                 T01120025 =
2018-10-21 05:35 METAR KMFV 210935Z AUTO 30021G34KT 10SM SCT045 OVC095 12/02 A2984 RMK AO2
                 T01150024 =
2018-10-21 05:15 METAR KMFV 210915Z AUTO 30024G34KT 10SM SCT041 OVC095 12/03 A2983 RMK AO2
                 T01150029 =
2018-10-21 04:55 METAR KMFV 210855Z AUTO 30021G31KT 10SM OVC095 12/03 A2982 RMK AO2 T01190032 =
2018-10-21 04:35 METAR KMFV 210835Z AUTO 30019G26KT 10SM OVC095 12/03 A2980 RMK AO2 T01200033 =
2018-10-21 04:15 METAR KMFV 210815Z AUTO 29017G28KT 10SM BKN095 BKN120 13/03 A2979 RMK AO2
                 T01250032 =
2018-10-21 03:55 METAR KMFV 210755Z AUTO 31011G20KT 10SM BKN085 OVC110 13/02 A2977 RMK AO2
                 T01260019 =
2018-10-21 03:35 METAR KMFV 210735Z AUTO 32009G20KT 230V360 10SM SCT030 SCT050 OVC080 12/04 A2978
                 RMK AO2 T01220040 =
2018-10-21 03:15 METAR KMFV 210715Z AUTO 32014G35KT 290V350 10SM BKN028 BKN037 OVC046 12/07 A2978
                 RMK AO2 T01240067 =
2018-10-21 02:55 METAR KMFV 210655Z AUTO 32018G25KT 290V010 10SM SCT029 BKN039 OVC060 13/06 A2977
                 RMK AO2 T01300064 =
2018-10-21 02:35 METAR KMFV 210635Z AUTO 31019G33KT 10SM SCT041 SCT070 OVC100 13/06 A2977 RMK AO2
                 T01320057 =
2018-10-21 02:15 METAR KMFV 210615Z AUTO 32009G27KT 270V020 10SM SCT040 OVC100 13/06 A2976 RMK
                 AO2 T01330059 =
2018-10-21 01:55 METAR KMFV 210555Z AUTO 34011G27KT 280V020 10SM SCT040 BKN110 14/06 A2975 RMK
                 AO2 T01360063 10167 20136 =
2018-10-21 01:35 METAR KMFV 210535Z AUTO 34012G19KT 10SM SCT036 14/08 A2974 RMK AO2 T01380081 =
2018-10-21 01:15 METAR KMFV 210515Z AUTO 34012G23KT 310V010 10SM SCT035 15/09 A2973 RMK AO2
                 T01450090 =
2018-10-21 00:55 METAR KMFV 210455Z AUTO 30018G26KT 10SM CLR 16/08 A2971 RMK AO2 T01600084
                 401780155 =
2018-10-21 00:35 METAR KMFV 210435Z AUTO 29014G22KT 10SM CLR 16/09 A2971 RMK AO2 T01630092 =
2018-10-21 00:15 METAR KMFV 210415Z AUTO 28012G17KT 10SM CLR 17/10 A2970 RMK AO2 T01650097 =
2018-10-20 23:55 METAR KMFV 210355Z AUTO 29013G18KT 10SM CLR 16/11 A2970 RMK AO2 T01640110 =
2018-10-20 23:35 METAR KMFV 210335Z AUTO 28009G17KT 10SM CLR 17/13 A2970 RMK AO2 T01650131 =
2018-10-20 23:15 METAR KMFV 210315Z AUTO 27010G14KT 10SM SCT065 SCT075 17/14 A2971 RMK AO2
                 T01650141 =
2018-10-20 22:55 METAR KMFV 210255Z AUTO 26009KT 10SM SCT065 16/15 A2971 RMK AO2 T01640146 =
2018-10-20 22:35 METAR KMFV 210235Z AUTO 25007KT 10SM CLR 17/15 A2971 RMK AO2 T01650148 =
2018-10-20 22:15 METAR KMFV 210215Z AUTO 25006KT 10SM CLR 17/15 A2971 RMK AO2 T01650148 =
2018-10-20 21:55 METAR KMFV 210155Z AUTO 25005KT 10SM CLR 16/15 A2970 RMK AO2 T01620148 =
2018-10-20 21:35 METAR KMFV 210135Z AUTO 25005KT 10SM CLR 16/15 A2970 RMK AO2 T01630150 =
2018-10-20 21:15 METAR KMFV 210115Z AUTO 24007KT 10SM CLR 16/15 A2970 RMK AO2 T01620150 PNO =
2018-10-20 20:55 METAR KMFV 210055Z AUTO 24005KT 10SM CLR 16/15 A2971 RMK AO2 T01620150 =
2018-10-20 20:35 METAR KMFV 210035Z AUTO 25007KT 10SM SCT019 SCT024 SCT032 17/15 A2971 RMK AO2
                 T01650149 =
2018-10-20 20:15 METAR KMFV 210015Z AUTO 26007KT 10SM BKN022 BKN032 BKN038 17/15 A2971 RMK AO2
                 LTG DSNT NW T01650148 =
2018-10-20 19:55 METAR KMFV 202355Z AUTO 26006KT 10SM SCT020 SCT025 BKN044 16/15 A2971 RMK AO2
                 LTG DSNT NW 60004 T01640148 10178 20159 =
2018-10-20 19:35 METAR KMFV 202335Z AUTO 24004KT 10SM SCT020 SCT027 SCT036 16/15 A2971 RMK AO2
                 T01600147 =
2018-10-20 19:15 METAR KMFV 202315Z AUTO 24005KT 10SM SCT017 SCT028 16/15 A2970 RMK AO2 T01600148
                 =
2018-10-20 18:55 METAR KMFV 202255Z AUTO 23005KT 10SM SCT019 SCT026 16/15 A2969 RMK AO2 T01600150
                 =
2018-10-20 18:35 METAR KMFV 202235Z AUTO 24007KT 10SM SCT019 SCT028 SCT033 16/15 A2969 RMK AO2
                 T01620150 =
2018-10-20 18:15 METAR KMFV 202215Z AUTO 24005KT 10SM SCT019 SCT031 17/15 A2969 RMK AO2 T01670153
                 =
2018-10-20 17:55 METAR KMFV 202155Z AUTO 25005KT 10SM SCT016 SCT021 17/16 A2968 RMK AO2 T01740156
                 =
2018-10-20 17:35 METAR KMFV 202135Z AUTO 24005KT 10SM SCT016 SCT023 BKN028 18/16 A2968 RMK AO2
                 T01770160 =
2018-10-20 17:15 METAR KMFV 202115Z AUTO 27005KT 10SM SCT016 BKN022 OVC037 18/16 A2970 RMK AO2
                 T01750158 =
2018-10-20 16:55 METAR KMFV 202055Z AUTO 28006KT 10SM SCT020 BKN040 OVC050 18/16 A2971 RMK AO2
                 60004 T01750159 =
2018-10-20 16:35 METAR KMFV 202035Z AUTO 27008KT 10SM SCT019 BKN026 BKN041 18/16 A2971 RMK AO2
                 T01760160 =
2018-10-20 16:15 METAR KMFV 202015Z AUTO 27008KT 10SM SCT016 BKN022 18/16 A2972 RMK AO2 T01750161
                 =
2018-10-20 15:55 METAR KMFV 201955Z AUTO 26007KT 10SM BKN017 OVC025 17/16 A2973 RMK AO2 T01730161
                 =
2018-10-20 15:35 METAR KMFV 201935Z AUTO 26007KT 10SM BKN014 BKN020 OVC025 17/16 A2974 RMK AO2
                 T01730163 =
2018-10-20 15:15 METAR KMFV 201915Z AUTO 26008KT 10SM BKN014 OVC018 17/17 A2975 RMK AO2 T01730166
                 =
2018-10-20 14:55 METAR KMFV 201855Z AUTO 25006KT 10SM BKN008 OVC014 17/17 A2975 RMK AO2 P0004
                 T01730166 =
2018-10-20 14:35 METAR KMFV 201835Z AUTO 24005KT 10SM RA BKN008 BKN018 OVC090 17/17 A2975 RMK AO2
                 P0003 T01730166 =
2018-10-20 14:15 METAR KMFV 201815Z AUTO 25005KT 7SM RA SCT018 SCT050 OVC090 17/17 A2977 RMK AO2
                 P0002 T01730165 =
2018-10-20 13:55 METAR KMFV 201755Z AUTO 24004KT 10SM -RA SCT050 BKN075 OVC100 17/17 A2977 RMK
                 AO2 P0002 60034 T01730165 10175 20165 =
2018-10-20 13:35 METAR KMFV 201735Z AUTO 24006KT 10SM DZ SCT050 BKN065 OVC100 18/17 A2978 RMK AO2
                 P0002 T01750165 =

Support USWX by starting your Amazon purchase here.